Time;durP1;ratioP1;P1;durP2;ratioP2;P2;SDS_P1;SDS_P2;PMS_P1;PMS_P2;Temp;Humidity;BMP_temperature;BMP_pressure;BME280_temperature;BME280_humidity;BME280_pressure;Samples;Min_cycle;Max_cycle;Signal;HPM_P1;HPM_P2
2022/06/14 00:01:21;;;;;;;14.70;5.28;;;;;;;12.20;68.84;102253.84;5059393;28;20052;-70
2022/06/14 00:03:46;;;;;;;16.63;5.65;;;;;;;12.20;68.53;102259.28;5095349;28;20035;-70
2022/06/14 00:06:23;;;;;;;14.60;5.40;;;;;;;12.17;68.98;102258.84;5095740;28;20110;-70
2022/06/14 00:08:49;;;;;;;18.42;5.95;;;;;;;12.12;69.85;102261.31;5075907;28;20037;-70
2022/06/14 00:11:24;;;;;;;15.60;5.57;;;;;;;12.07;69.29;102256.47;5075267;28;20051;-70
2022/06/14 00:13:51;;;;;;;15.50;5.05;;;;;;;12.10;69.33;102258.78;5075410;28;20376;-70
2022/06/14 00:16:18;;;;;;;15.65;5.57;;;;;;;12.05;69.69;102258.56;5075092;28;20033;-71
2022/06/14 00:18:43;;;;;;;14.88;5.25;;;;;;;12.02;69.67;102248.94;5074921;28;20455;-70
2022/06/14 00:21:09;;;;;;;14.75;5.57;;;;;;;11.97;69.78;102254.16;5075204;28;20036;-70
2022/06/14 00:23:35;;;;;;;15.48;5.68;;;;;;;11.90;70.07;102253.22;5056061;28;20068;-70
2022/06/14 00:26:02;;;;;;;13.82;5.25;;;;;;;11.84;70.50;102248.59;5055062;28;20098;-70
2022/06/14 00:28:30;;;;;;;16.90;5.93;;;;;;;11.80;71.07;102240.00;5036141;28;20108;-70
2022/06/14 00:31:00;;;;;;;16.65;5.85;;;;;;;11.83;71.15;102246.91;5054831;28;20460;-70
2022/06/14 00:33:25;;;;;;;19.10;5.88;;;;;;;11.86;71.43;102247.34;5054992;28;20108;-70
2022/06/14 00:36:02;;;;;;;19.90;6.57;;;;;;;11.81;72.02;102249.84;5054832;28;20112;-70
2022/06/14 00:38:28;;;;;;;19.65;6.70;;;;;;;11.78;72.01;102243.97;5054790;28;20029;-69
2022/06/14 00:40:56;;;;;;;15.60;6.10;;;;;;;11.74;72.23;102246.22;5054780;28;20033;-70
2022/06/14 00:43:22;;;;;;;16.27;6.53;;;;;;;11.69;72.70;102241.41;5054739;28;20036;-71
2022/06/14 00:45:51;;;;;;;16.40;6.40;;;;;;;11.62;72.91;102242.41;5054498;28;20448;-70
2022/06/14 00:48:24;;;;;;;18.98;6.88;;;;;;;11.58;72.97;102227.56;5054676;28;20032;-70
2022/06/14 00:51:11;;;;;;;22.05;6.93;;;;;;;11.71;72.53;102238.50;5054296;28;20033;-70
2022/06/14 00:53:40;;;;;;;17.88;6.43;;;;;;;11.70;72.62;102232.25;5054284;28;20033;-70
2022/06/14 00:56:13;;;;;;;14.80;6.50;;;;;;;11.73;73.34;102230.16;5054430;28;20045;-71
2022/06/14 00:58:45;;;;;;;21.40;6.90;;;;;;;11.59;73.25;102226.53;5054358;28;20478;-70
2022/06/14 01:01:17;;;;;;;18.27;7.00;;;;;;;11.56;73.46;102230.47;5055187;28;20111;-69
2022/06/14 01:03:49;;;;;;;16.50;6.63;;;;;;;11.60;73.58;102234.47;5094732;28;20081;-70
2022/06/14 01:06:17;;;;;;;;;;;;;;;11.82;70.32;102232.53;5094981;28;20097;-70
2022/06/14 01:09:04;;;;;;;16.05;6.18;;;;;;;11.56;74.44;102230.47;5080599;28;19927;-70
2022/06/14 01:11:44;;;;;;;18.48;6.43;;;;;;;11.56;74.60;102235.06;5056087;28;20023;-70
2022/06/14 01:14:14;;;;;;;16.35;6.40;;;;;;;11.38;74.92;102230.94;5074192;28;20057;-70
2022/06/14 01:16:39;;;;;;;15.50;6.72;;;;;;;11.29;75.79;102230.28;5073528;28;20031;-70
2022/06/14 01:19:11;;;;;;;18.00;7.28;;;;;;;11.34;76.36;102240.53;5056096;28;20029;-70
2022/06/14 01:21:36;;;;;;;18.45;6.95;;;;;;;11.34;76.54;102237.81;5073748;28;20059;-70
2022/06/14 01:24:02;;;;;;;20.55;7.00;;;;;;;11.31;76.61;102244.47;5056930;28;20035;-70
2022/06/14 01:26:29;;;;;;;18.10;6.80;;;;;;;11.34;76.59;102233.22;5053981;28;20025;-70
2022/06/14 01:28:58;;;;;;;16.40;6.40;;;;;;;11.23;77.50;102236.50;5053626;28;20043;-70
2022/06/14 01:31:27;;;;;;;16.52;6.85;;;;;;;11.20;76.82;102227.88;5054920;28;20575;-70
2022/06/14 01:33:58;;;;;;;15.60;7.15;;;;;;;11.30;77.01;102226.53;5053590;28;20459;-70
2022/06/14 01:36:27;;;;;;;16.42;6.90;;;;;;;11.22;76.82;102225.81;5053709;28;20029;-70
2022/06/14 01:38:55;;;;;;;18.45;7.20;;;;;;;11.20;76.88;102214.34;5057143;28;20055;-70
2022/06/14 01:41:47;;;;;;;19.25;6.72;;;;;;;11.13;76.82;102223.25;5072561;28;20424;-70
2022/06/14 01:44:34;;;;;;;16.63;7.18;;;;;;;11.10;77.96;102222.81;5073612;28;20033;-70
2022/06/14 01:47:09;;;;;;;17.55;7.28;;;;;;;11.15;77.26;102217.63;5073275;28;20028;-70
2022/06/14 01:52:36;;;;;;;20.08;7.07;;;;;;;11.15;77.77;102218.47;5072904;28;20063;-70
2022/06/14 01:55:26;;;;;;;19.02;7.15;;;;;;;11.20;77.79;102214.34;5057783;28;20041;-70
2022/06/14 01:58:03;;;;;;;16.05;6.70;;;;;;;11.10;78.34;102214.69;5052834;28;20060;-70
2022/06/14 02:00:38;;;;;;;18.40;7.28;;;;;;;11.02;78.46;102206.69;5051698;28;20031;-70
2022/06/14 02:06:33;;;;;;;19.77;7.07;;;;;;;11.05;78.07;102203.59;5093476;28;20157;-70
2022/06/14 02:09:09;;;;;;;17.27;7.03;;;;;;;11.00;78.89;102206.88;5083504;28;20025;-70
2022/06/14 02:11:36;;;;;;;15.00;7.13;;;;;;;10.99;78.32;102197.06;5073113;28;20372;-70
2022/06/14 02:14:23;;;;;;;18.00;6.78;;;;;;;10.93;78.72;102198.69;5072711;28;20044;-70
2022/06/14 02:17:00;;;;;;;14.85;6.30;;;;;;;10.92;79.29;102199.72;5072735;28;20021;-70
2022/06/14 02:19:38;;;;;;;12.40;6.03;;;;;;;10.78;80.16;102195.22;5055009;28;20379;-70
2022/06/14 02:22:36;;;;;;;14.13;6.57;;;;;;;10.77;79.88;102202.50;5072984;28;20036;-70
2022/06/14 02:25:10;;;;;;;11.77;6.05;;;;;;;10.63;81.88;102198.00;5048199;28;20183;-70
2022/06/14 02:27:55;;;;;;;17.52;6.53;;;;;;;10.74;80.48;102196.66;5052876;28;20464;-75
2022/06/14 02:30:27;;;;;;;15.00;5.88;;;;;;;10.74;81.59;102189.34;5052500;28;20025;-70
2022/06/14 02:33:01;;;;;;;14.30;6.20;;;;;;;10.68;81.48;102190.13;5052512;28;20029;-68
2022/06/14 02:35:34;;;;;;;15.23;6.00;;;;;;;10.68;81.30;102190.13;5052689;28;20040;-70
2022/06/14 02:38:15;;;;;;;16.25;6.90;;;;;;;10.63;81.13;102187.16;5057066;28;20020;-70
2022/06/14 02:40:54;;;;;;;16.65;6.43;;;;;;;10.57;81.24;102175.22;5072495;28;20173;-70
2022/06/14 02:43:27;;;;;;;14.68;6.20;;;;;;;10.50;83.00;102178.91;5072353;28;20024;-70
2022/06/14 02:45:58;;;;;;;13.85;5.70;;;;;;;10.37;83.78;102176.88;5072425;28;20032;-70
2022/06/14 02:48:34;;;;;;;13.93;5.95;;;;;;;10.38;82.96;102171.28;5072714;28;20063;-70
2022/06/14 02:51:24;;;;;;;13.05;5.53;;;;;;;10.51;82.65;102173.28;5072542;28;20024;-70
2022/06/14 02:54:00;;;;;;;15.73;5.80;;;;;;;10.43;83.55;102170.69;5058125;28;20422;-70
2022/06/14 02:56:34;;;;;;;15.45;6.90;;;;;;;10.41;83.88;102176.31;5052259;28;20087;-70
2022/06/14 02:59:12;;;;;;;16.45;6.78;;;;;;;10.41;82.62;102168.19;5052035;28;20040;-70
2022/06/14 03:02:25;;;;;;;11.93;6.00;;;;;;;10.43;81.43;102173.41;5065901;28;20077;-70
2022/06/14 03:04:59;;;;;;;13.68;6.18;;;;;;;10.40;82.21;102171.94;5083244;28;20095;-70
2022/06/14 03:07:30;;;;;;;15.70;6.05;;;;;;;10.44;82.38;102180.50;5087547;28;20107;-70
2022/06/14 03:09:55;;;;;;;14.25;6.40;;;;;;;10.43;82.11;102178.81;5072176;28;20032;-70
2022/06/14 03:12:30;;;;;;;14.93;6.50;;;;;;;10.43;81.73;102176.97;5072643;28;20041;-70
2022/06/14 03:15:26;;;;;;;14.77;6.50;;;;;;;10.42;82.16;102175.28;5072105;28;20410;-70
2022/06/14 03:18:11;;;;;;;16.15;6.22;;;;;;;10.40;82.31;102177.34;5072085;28;20063;-70
2022/06/14 03:20:56;;;;;;;15.27;6.22;;;;;;;10.33;83.28;102181.84;5072119;28;20029;-70
2022/06/14 03:23:44;;;;;;;13.82;6.00;;;;;;;10.32;82.50;102182.00;5058131;28;20107;-70
2022/06/14 03:26:32;;;;;;;14.38;6.22;;;;;;;10.39;82.30;102185.66;5052298;28;20029;-70
2022/06/14 03:29:24;;;;;;;15.85;6.65;;;;;;;10.44;82.38;102183.22;5051961;28;20025;-70
2022/06/14 03:32:00;;;;;;;14.55;6.65;;;;;;;10.36;83.38;102176.03;5051796;28;20377;-70
2022/06/14 03:34:36;;;;;;;15.90;6.28;;;;;;;10.31;83.17;102189.28;5052162;28;20119;-70
2022/06/14 03:37:02;;;;;;;15.30;5.85;;;;;;;10.28;83.36;102186.94;5056194;28;20478;-70
2022/06/14 03:39:36;;;;;;;13.68;6.18;;;;;;;10.31;83.38;102178.47;5072077;28;20040;-70
2022/06/14 03:42:04;;;;;;;13.77;6.18;;;;;;;10.26;84.27;102178.19;5071706;28;20028;-70
2022/06/14 03:44:30;;;;;;;17.70;6.60;;;;;;;10.19;84.30;102182.66;5054060;28;20035;-70
2022/06/14 03:47:17;;;;;;;15.60;7.22;;;;;;;10.20;84.13;102177.06;5071819;28;20020;-70
2022/06/14 03:49:47;;;;;;;13.68;5.70;;;;;;;10.17;85.18;102173.91;5071817;28;20024;-70
2022/06/14 03:52:34;;;;;;;15.98;6.50;;;;;;;10.27;83.67;102186.09;5063147;28;20059;-70
2022/06/14 03:55:35;;;;;;;11.75;5.97;;;;;;;10.33;83.48;102179.13;5051833;28;20021;-70
2022/06/14 03:58:03;;;;;;;14.23;6.33;;;;;;;10.28;83.58;102178.81;5051838;28;20091;-70
2022/06/14 04:00:36;;;;;;;17.83;6.65;;;;;;;10.29;84.50;102170.50;5050240;28;20040;-70
2022/06/14 04:03:26;;;;;;;11.23;5.72;;;;;;;10.39;83.23;102181.06;5090877;28;20482;-70
2022/06/14 04:06:16;;;;;;;13.90;6.07;;;;;;;10.40;84.37;102190.03;5095640;28;20119;-70
2022/06/14 04:08:58;;;;;;;13.60;6.10;;;;;;;10.39;84.58;102185.66;5055490;28;20490;-70
2022/06/14 04:11:42;;;;;;;13.20;6.18;;;;;;;10.43;84.65;102186.94;5055406;28;20075;-70
2022/06/14 04:14:12;;;;;;;11.20;5.78;;;;;;;10.36;85.90;102186.88;5055345;28;20024;-70
2022/06/14 04:17:16;;;;;;;14.75;5.93;;;;;;;10.43;83.97;102195.06;5054887;28;20447;-70
2022/06/14 04:19:59;;;;;;;14.30;6.30;;;;;;;10.45;83.97;102203.84;5054408;28;20037;-70
2022/06/14 04:23:02;;;;;;;14.35;6.57;;;;;;;10.48;84.13;102189.06;5055087;28;20037;-70
2022/06/14 04:25:43;;;;;;;13.73;6.07;;;;;;;10.51;83.79;102194.09;5054862;28;20477;-70
2022/06/14 04:28:19;;;;;;;12.30;6.00;;;;;;;10.62;83.29;102191.72;5055055;28;20119;-70
2022/06/14 04:31:03;;;;;;;13.85;5.47;;;;;;;10.73;82.66;102197.66;5054758;28;20040;-70
2022/06/14 04:33:39;;;;;;;17.27;6.30;;;;;;;10.70;83.84;102196.16;5058541;28;20067;-70
2022/06/14 04:36:13;;;;;;;11.30;5.70;;;;;;;10.81;83.74;102201.09;5074661;28;20036;-70
2022/06/14 04:38:47;;;;;;;17.70;6.05;;;;;;;10.85;83.58;102198.00;5074940;28;20650;-70
2022/06/14 04:41:31;;;;;;;16.58;6.15;;;;;;;10.98;82.94;102200.81;5075121;28;20456;-70
2022/06/14 04:44:18;;;;;;;14.07;6.07;;;;;;;11.07;82.75;102205.06;5074631;28;20060;-70
2022/06/14 04:46:53;;;;;;;13.70;5.85;;;;;;;11.15;82.65;102202.22;5074697;28;20035;-70
2022/06/14 04:49:36;;;;;;;13.25;6.00;;;;;;;11.26;82.55;102203.56;5055079;28;20464;-70
2022/06/14 04:52:10;;;;;;;15.25;6.20;;;;;;;11.29;81.81;102205.03;5054033;28;20372;-70
2022/06/14 04:54:46;;;;;;;15.65;6.13;;;;;;;11.38;82.01;102203.84;5054592;28;20043;-70
2022/06/14 04:57:24;;;;;;;10.80;5.63;;;;;;;11.44;82.15;102205.78;5054402;28;20395;-70
2022/06/14 05:00:10;;;;;;;14.07;6.03;;;;;;;11.53;82.00;102195.63;5054321;28;20143;-70
2022/06/14 05:02:40;;;;;;;12.80;5.85;;;;;;;11.61;82.65;102197.34;5067254;28;20094;-70
2022/06/14 05:05:38;;;;;;;13.27;6.15;;;;;;;11.74;81.64;102205.56;5073904;28;20078;-70
2022/06/14 05:08:12;;;;;;;14.68;6.03;;;;;;;11.77;83.74;102197.00;5074116;28;20070;-70
2022/06/14 05:10:46;;;;;;;15.90;5.78;;;;;;;11.87;83.15;102204.81;5074209;28;20079;-70
2022/06/14 05:13:22;;;;;;;12.60;5.35;;;;;;;11.97;83.45;102202.59;5074281;28;20078;-70
2022/06/14 05:15:58;;;;;;;15.13;5.35;;;;;;;12.04;83.82;102206.16;5069904;28;20021;-70
2022/06/14 05:18:41;;;;;;;12.85;5.15;;;;;;;12.14;82.95;102205.81;5054182;28;20033;-70
2022/06/14 05:21:21;;;;;;;14.57;5.70;;;;;;;12.18;83.25;102204.38;5053867;28;20128;-70
2022/06/14 05:23:50;;;;;;;16.75;5.75;;;;;;;12.25;82.60;102200.84;5053902;28;20383;-70
2022/06/14 05:26:54;;;;;;;14.95;6.03;;;;;;;12.26;84.27;102205.22;5053990;28;20040;-70
2022/06/14 05:29:29;;;;;;;18.35;6.25;;;;;;;12.38;82.83;102196.28;5009475;28;20049;-70
2022/06/14 05:32:38;;;;;;;17.17;5.88;;;;;;;12.48;81.57;102205.91;5044646;28;20403;-71
2022/06/14 05:35:12;;;;;;;16.35;5.70;;;;;;;12.54;80.10;102210.53;5053472;28;20025;-71
2022/06/14 05:37:55;;;;;;;14.63;5.18;;;;;;;12.55;81.40;102214.94;5053484;28;20365;-70
2022/06/14 05:40:28;;;;;;;15.30;5.15;;;;;;;12.60;77.32;102209.69;5053793;28;20035;-70
2022/06/14 05:43:01;;;;;;;17.15;4.90;;;;;;;12.56;77.87;102208.44;5053454;28;20060;-71
2022/06/14 05:45:29;;;;;;;11.90;4.60;;;;;;;12.59;78.42;102211.59;5066579;28;20025;-70
2022/06/14 05:48:04;;;;;;;15.63;5.07;;;;;;;12.62;76.67;102210.34;5055329;28;20040;-73
2022/06/14 05:50:37;;;;;;;8.93;3.80;;;;;;;12.65;77.00;102204.50;5073462;28;20028;-70
2022/06/14 05:53:12;;;;;;;14.25;4.68;;;;;;;12.75;76.57;102212.25;5072883;28;20444;-70
2022/06/14 05:55:44;;;;;;;15.43;5.72;;;;;;;12.81;78.19;102205.97;5073375;28;20086;-70
2022/06/14 05:58:17;;;;;;;12.73;5.20;;;;;;;12.90;76.57;102207.47;5073163;28;20028;-70
2022/06/14 06:01:01;;;;;;;14.88;5.20;;;;;;;12.99;77.20;102210.00;5054256;28;20028;-68
2022/06/14 06:03:29;;;;;;;11.13;4.22;;;;;;;13.05;75.30;102212.69;5093258;28;20372;-68
2022/06/14 06:06:04;;;;;;;14.52;3.85;;;;;;;13.11;74.14;102206.44;5093261;28;20028;-68
2022/06/14 06:08:45;;;;;;;11.45;4.28;;;;;;;13.06;74.68;102213.56;5093710;28;20032;-68
2022/06/14 06:11:20;;;;;;;13.38;4.68;;;;;;;13.09;75.24;102218.56;5092844;28;20413;-68
2022/06/14 06:13:54;;;;;;;13.55;4.53;;;;;;;13.18;74.08;102221.91;5088711;28;20518;-68
2022/06/14 06:16:31;;;;;;;14.00;3.85;;;;;;;13.24;74.67;102231.94;5072939;28;20035;-68
2022/06/14 06:19:02;;;;;;;10.00;3.83;;;;;;;13.30;72.64;102225.69;5072798;28;20120;-68
2022/06/14 06:21:34;;;;;;;10.13;3.60;;;;;;;13.41;72.03;102229.69;5073027;28;20036;-68
2022/06/14 06:24:33;;;;;;;14.27;4.30;;;;;;;13.51;73.02;102221.91;5072985;28;20036;-68
2022/06/14 06:27:10;;;;;;;13.40;4.78;;;;;;;13.52;72.62;102218.16;5072382;28;20035;-68
2022/06/14 06:29:53;;;;;;;14.65;4.38;;;;;;;13.61;72.62;102216.88;5060119;28;20029;-68
2022/06/14 06:32:20;;;;;;;11.65;4.10;;;;;;;13.62;72.83;102221.28;5052830;28;20056;-68
2022/06/14 06:34:49;;;;;;;13.98;5.07;;;;;;;13.67;71.86;102214.38;5052610;28;20032;-68
2022/06/14 06:37:25;;;;;;;9.63;4.43;;;;;;;13.77;71.73;102217.50;5052610;28;20209;-68
2022/06/14 06:39:59;;;;;;;13.27;4.10;;;;;;;13.82;71.15;102231.28;5052532;28;20107;-68
2022/06/14 06:42:58;;;;;;;19.05;4.47;;;;;;;13.92;70.49;102234.41;5052552;28;20024;-68
2022/06/14 06:45:38;;;;;;;9.50;3.58;;;;;;;13.98;70.75;102236.28;5052579;28;20029;-68
2022/06/14 06:48:34;;;;;;;14.10;3.95;;;;;;;14.10;69.82;102233.72;5052350;28;20106;-70
2022/06/14 06:51:07;;;;;;;13.00;4.50;;;;;;;14.12;69.05;102223.44;5050881;28;20127;-72
2022/06/14 06:53:40;;;;;;;10.80;4.20;;;;;;;14.17;68.35;102236.41;5052295;28;20032;-73
2022/06/14 06:56:14;;;;;;;9.98;4.22;;;;;;;14.23;67.79;102230.09;5051839;28;20052;-71
2022/06/14 06:58:52;;;;;;;10.50;4.55;;;;;;;14.24;66.95;102226.34;5052245;28;20036;-73
2022/06/14 07:01:25;;;;;;;11.70;3.92;;;;;;;14.26;66.14;102226.94;5066959;28;20040;-71
2022/06/14 07:04:01;;;;;;;10.52;3.75;;;;;;;14.32;64.07;102223.34;5092399;28;20028;-72
2022/06/14 07:06:38;;;;;;;9.02;3.70;;;;;;;14.34;64.58;102234.88;5092346;28;20035;-71
2022/06/14 07:09:37;;;;;;;20.65;4.22;;;;;;;14.35;64.22;102222.91;5092366;28;20035;-69
2022/06/14 07:12:07;;;;;;;13.10;4.32;;;;;;;14.39;64.38;102222.50;5074617;28;20076;-69
2022/06/14 07:14:58;;;;;;;16.85;4.25;;;;;;;14.49;63.13;102226.44;5052049;28;20032;-69
2022/06/14 07:17:33;;;;;;;8.13;2.63;;;;;;;14.52;57.43;102227.88;5027823;28;20032;-69
2022/06/14 07:20:26;;;;;;;9.63;2.60;;;;;;;14.53;57.84;102237.72;5054081;28;20031;-70
2022/06/14 07:22:59;;;;;;;8.32;3.22;;;;;;;14.66;57.84;102234.09;5064142;28;20046;-71
2022/06/14 07:25:41;;;;;;;10.90;3.67;;;;;;;14.68;60.16;102226.56;5052202;28;20052;-72
2022/06/14 07:28:06;;;;;;;9.73;3.15;;;;;;;14.65;57.91;102229.72;5052006;28;20033;-71
2022/06/14 07:30:41;;;;;;;9.13;2.70;;;;;;;14.66;57.62;102224.06;5054062;28;20379;-70
2022/06/14 07:33:09;;;;;;;9.32;2.40;;;;;;;14.70;56.63;102228.03;5052112;28;20029;-73
2022/06/14 07:35:51;;;;;;;8.57;2.15;;;;;;;14.76;55.32;102228.19;5052036;28;20029;-69
2022/06/14 07:38:24;;;;;;;5.72;1.70;;;;;;;14.80;53.80;102226.72;5052599;28;20112;-70
2022/06/14 07:41:14;;;;;;;7.50;2.00;;;;;;;14.85;54.22;102230.44;5055986;28;20041;-69
2022/06/14 07:44:35;;;;;;;4.82;1.50;;;;;;;14.88;53.82;102231.88;5055936;28;20083;-70
2022/06/14 07:47:34;;;;;;;7.63;2.45;;;;;;;14.88;55.67;102229.97;5013403;28;20113;-70
2022/06/14 07:50:11;;;;;;;9.50;3.25;;;;;;;14.79;55.71;102227.75;5013042;28;20401;-69
2022/06/14 07:53:08;;;;;;;8.15;3.22;;;;;;;14.85;56.21;102230.44;5050709;28;20048;-68
2022/06/14 07:55:42;;;;;;;9.05;2.70;;;;;;;14.88;56.79;102220.97;4996994;28;20067;-69
2022/06/14 07:58:15;;;;;;;6.88;2.63;;;;;;;14.89;56.86;102226.22;5055262;28;20060;-69
2022/06/14 08:04:01;;;;;;;9.05;2.83;;;;;;;14.99;57.42;102225.75;5095949;28;20101;-69
2022/06/14 08:06:35;;;;;;;4.88;2.10;;;;;;;15.07;57.24;102222.72;5095923;28;20043;-69
2022/06/14 08:09:22;;;;;;;6.07;2.25;;;;;;;15.19;56.05;102214.66;5086931;28;20025;-68
2022/06/14 08:11:57;;;;;;;7.20;2.13;;;;;;;15.23;55.91;102217.78;5075459;28;20075;-69
2022/06/14 08:14:35;;;;;;;5.60;2.20;;;;;;;15.29;55.68;102214.16;5075298;28;20549;-69
2022/06/14 08:17:02;;;;;;;5.72;2.55;;;;;;;15.20;54.84;102216.34;5075032;28;20028;-69
2022/06/14 08:19:46;;;;;;;7.47;2.40;;;;;;;15.29;56.04;102208.69;5075554;28;20043;-69
2022/06/14 08:22:24;;;;;;;9.52;2.72;;;;;;;15.41;56.08;102217.84;5075028;28;20033;-68
2022/06/14 08:24:54;;;;;;;6.25;2.17;;;;;;;15.45;55.02;102209.22;5058333;28;20025;-68
2022/06/14 08:27:32;;;;;;;7.97;2.33;;;;;;;15.52;55.97;102207.22;5037155;28;20037;-69
2022/06/14 08:30:04;;;;;;;4.00;2.15;;;;;;;15.47;54.61;102201.63;5054801;28;20025;-68
2022/06/14 08:32:39;;;;;;;6.75;2.08;;;;;;;15.54;54.70;102202.41;5054731;28;20032;-70
2022/06/14 08:35:25;;;;;;;7.22;2.17;;;;;;;15.60;54.44;102201.50;5055691;28;20025;-69
2022/06/14 08:37:54;;;;;;;6.97;2.30;;;;;;;15.67;53.12;102195.97;5054861;28;20025;-68
2022/06/14 08:40:34;;;;;;;4.10;1.60;;;;;;;15.69;54.01;102200.13;5054328;28;20036;-69
2022/06/14 08:43:11;;;;;;;4.10;1.75;;;;;;;15.67;53.82;102199.53;5054578;28;20108;-69
2022/06/14 08:45:53;;;;;;;5.30;2.08;;;;;;;15.72;54.55;102194.22;5054711;28;20162;-70
2022/06/14 08:48:37;;;;;;;7.72;2.20;;;;;;;15.72;53.71;102196.13;5054217;28;20029;-70
2022/06/14 08:51:20;;;;;;;6.07;2.22;;;;;;;15.81;54.55;102194.78;5065541;28;20028;-69
2022/06/14 08:53:57;;;;;;;7.97;2.40;;;;;;;15.91;54.89;102203.28;5074720;28;20085;-70
2022/06/14 08:56:41;;;;;;;6.20;2.40;;;;;;;15.91;52.45;102202.44;5074210;28;20487;-69
2022/06/14 08:59:25;;;;;;;6.53;2.20;;;;;;;16.02;54.44;102203.56;5074072;28;20378;-68
2022/06/14 09:02:28;;;;;;;8.50;2.80;;;;;;;16.08;55.85;102203.50;5081663;28;20047;-70
2022/06/14 09:05:04;;;;;;;6.18;2.80;;;;;;;16.19;55.44;102201.06;5066029;28;20057;-69
2022/06/14 09:07:54;;;;;;;5.72;2.55;;;;;;;16.25;55.06;102198.25;5054407;28;20062;-70
2022/06/14 09:10:54;;;;;;;10.18;2.85;;;;;;;16.24;53.70;102201.22;5054159;28;20036;-69
2022/06/14 09:13:28;;;;;;;13.25;2.92;;;;;;;16.26;53.63;102196.34;5054108;28;20033;-69
2022/06/14 09:16:15;;;;;;;6.25;2.35;;;;;;;16.35;54.41;102197.72;5054144;28;20068;-69
2022/06/14 09:19:06;;;;;;;7.30;2.40;;;;;;;16.35;52.83;102196.84;5054215;28;20041;-70
2022/06/14 09:21:56;;;;;;;10.25;3.25;;;;;;;16.31;52.72;102193.75;5074095;28;20082;-69
2022/06/14 09:24:27;;;;;;;4.93;2.40;;;;;;;16.33;53.55;102191.63;5074139;28;20082;-69
2022/06/14 09:27:11;;;;;;;6.97;2.88;;;;;;;16.36;52.53;102190.34;5073995;28;20037;-69
2022/06/14 09:30:10;;;;;;;8.05;2.80;;;;;;;16.52;53.58;102194.34;5073928;28;20028;-69
2022/06/14 09:33:14;;;;;;;9.23;2.95;;;;;;;16.50;52.35;102193.72;5073865;28;20090;-69
2022/06/14 09:36:04;;;;;;;6.35;2.80;;;;;;;16.42;52.75;102184.78;5073123;28;20050;-69
2022/06/14 09:38:53;;;;;;;9.98;2.85;;;;;;;16.44;52.95;102179.94;5073703;28;20032;-70
2022/06/14 09:41:37;;;;;;;4.75;2.33;;;;;;;16.52;53.86;102184.22;5073496;28;20764;-69
2022/06/14 09:44:20;;;;;;;7.32;2.90;;;;;;;16.60;52.96;102177.59;5073407;28;20540;-69
2022/06/14 09:47:02;;;;;;;10.35;2.67;;;;;;;16.71;52.56;102174.03;5073590;28;20040;-69
2022/06/14 09:49:58;;;;;;;8.75;2.67;;;;;;;16.79;53.36;102170.16;5065636;28;20040;-70
2022/06/14 09:52:42;;;;;;;7.95;2.80;;;;;;;16.86;53.42;102164.59;5053234;28;20051;-69
2022/06/14 09:55:26;;;;;;;9.45;2.80;;;;;;;16.86;53.37;102159.13;5053303;28;20029;-69
2022/06/14 09:57:54;;;;;;;7.70;2.53;;;;;;;16.94;51.96;102161.53;5053451;28;20088;-69
2022/06/14 10:00:30;;;;;;;7.68;2.30;;;;;;;16.95;50.51;102158.59;5053065;28;20025;-69
2022/06/14 10:03:07;;;;;;;5.18;2.20;;;;;;;16.89;51.62;102154.03;5090391;28;20044;-68
2022/06/14 10:06:11;;;;;;;7.65;2.83;;;;;;;17.04;52.40;102156.31;5073315;28;20036;-69
2022/06/14 10:09:00;;;;;;;5.80;2.50;;;;;;;17.14;52.17;102156.56;5073148;28;20032;-69
2022/06/14 10:11:37;;;;;;;7.20;2.72;;;;;;;17.25;52.01;102156.81;5072971;28;20036;-69
2022/06/14 10:14:10;;;;;;;6.40;2.80;;;;;;;17.31;53.32;102155.84;5059354;28;20065;-69
2022/06/14 10:16:47;;;;;;;7.32;2.85;;;;;;;17.38;52.54;102151.09;5052983;28;20037;-69
2022/06/14 10:19:49;;;;;;;10.75;2.85;;;;;;;17.47;52.36;102148.84;5052568;28;20047;-69
2022/06/14 10:22:50;;;;;;;9.68;3.03;;;;;;;17.54;52.48;102144.03;5052468;28;20383;-70
2022/06/14 10:29:00;;;;;;;9.68;3.28;;;;;;;17.71;52.99;102134.03;5064588;28;20039;-71
2022/06/14 10:31:56;;;;;;;6.00;2.88;;;;;;;17.71;51.07;102133.19;5072642;28;20051;-74
2022/06/14 10:34:41;;;;;;;7.38;3.10;;;;;;;17.80;52.10;102130.88;5064034;28;20033;-70
2022/06/14 10:37:21;;;;;;;5.32;2.63;;;;;;;17.74;50.58;102129.97;5069590;28;20086;-71
2022/06/14 10:40:29;;;;;;;5.60;2.70;;;;;;;17.71;50.77;102105.81;5066892;28;20090;-67
2022/06/14 10:43:27;;;;;;;7.78;2.70;;;;;;;17.83;51.50;102124.94;5051719;28;20099;-71
2022/06/14 10:45:57;;;;;;;7.97;3.30;;;;;;;17.96;51.52;102118.38;5056447;28;20040;-73
2022/06/14 10:48:45;;;;;;;6.53;3.08;;;;;;;17.96;50.79;102118.38;5056048;28;20479;-75
2022/06/14 10:51:32;;;;;;;8.10;3.22;;;;;;;18.01;49.63;102111.09;5063563;28;20062;-69
2022/06/14 10:53:58;;;;;;;9.13;3.17;;;;;;;17.98;49.81;102111.59;5072226;28;20516;-68
2022/06/14 10:56:47;;;;;;;9.32;3.00;;;;;;;18.16;52.70;102101.50;5054136;28;20083;-69
2022/06/14 10:59:23;;;;;;;10.57;3.10;;;;;;;18.31;51.38;102101.78;5056972;28;20033;-69
2022/06/14 11:02:01;;;;;;;7.90;3.10;;;;;;;18.41;51.19;102090.19;5069187;28;20052;-70
2022/06/14 11:04:54;;;;;;;9.38;3.33;;;;;;;18.60;51.85;102097.09;5092739;28;20024;-69
2022/06/14 11:07:50;;;;;;;8.80;3.30;;;;;;;18.72;51.95;102093.41;5074263;28;20024;-71
2022/06/14 11:10:38;;;;;;;6.38;2.85;;;;;;;18.90;51.43;102095.94;5092409;28;20120;-71
2022/06/14 11:13:17;;;;;;;8.63;3.00;;;;;;;18.97;49.14;102087.53;5085956;28;20063;-71
2022/06/14 11:15:51;;;;;;;10.85;2.92;;;;;;;19.04;49.32;102095.63;5056548;28;20025;-70
2022/06/14 11:18:52;;;;;;;9.68;3.05;;;;;;;19.17;50.42;102084.25;5056186;28;20120;-71
2022/06/14 11:21:23;;;;;;;6.13;2.70;;;;;;;19.34;51.01;102081.50;5056168;28;20368;-68
2022/06/14 11:24:01;;;;;;;6.80;3.08;;;;;;;19.39;49.14;102086.22;5056349;28;20484;-69
2022/06/14 11:26:43;;;;;;;6.55;2.67;;;;;;;19.42;48.59;102082.97;5056150;28;20495;-70
2022/06/14 11:29:22;;;;;;;6.97;3.03;;;;;;;19.47;48.15;102083.88;5056161;28;20063;-69
2022/06/14 11:31:57;;;;;;;6.63;2.80;;;;;;;19.32;46.00;102077.31;5056165;28;20055;-73
2022/06/14 11:34:51;;;;;;;8.20;2.38;;;;;;;19.44;46.11;102073.38;5055858;28;20036;-71
2022/06/14 11:37:28;;;;;;;7.50;2.42;;;;;;;19.64;47.20;102067.31;5055588;28;20055;-70
2022/06/14 11:40:09;;;;;;;7.70;2.60;;;;;;;19.50;45.09;102062.47;5055671;28;20433;-73
2022/06/14 11:43:05;;;;;;;6.87;2.77;;;;;;;19.72;47.24;102062.47;5038080;28;20369;-70
2022/06/14 11:45:53;;;;;;;6.47;2.60;;;;;;;19.92;47.07;102048.97;5044233;28;20045;-73
2022/06/14 11:49:15;;;;;;;6.43;2.75;;;;;;;19.90;47.53;102042.91;5055600;28;20079;-72
2022/06/14 11:51:53;;;;;;;6.72;2.65;;;;;;;19.98;46.18;102045.16;5029835;28;20044;-71
2022/06/14 11:54:40;;;;;;;7.85;2.38;;;;;;;20.11;45.92;102048.59;5013245;28;20137;-69
2022/06/14 11:57:26;;;;;;;6.93;2.63;;;;;;;20.12;44.96;102058.50;5063992;28;20048;-71
2022/06/14 12:00:01;;;;;;;7.80;2.47;;;;;;;20.09;45.43;102053.53;5075614;28;20120;-69
2022/06/14 12:02:38;;;;;;;5.78;2.50;;;;;;;20.21;46.35;102045.94;5087352;28;20044;-70
2022/06/14 12:05:42;;;;;;;9.35;2.53;;;;;;;20.39;46.26;102043.91;5083534;28;20036;-71
2022/06/14 12:08:13;;;;;;;4.82;2.10;;;;;;;20.47;44.61;102040.66;5075476;28;20605;-71
2022/06/14 12:11:12;;;;;;;8.60;2.60;;;;;;;20.61;45.90;102044.63;5075472;28;20046;-70
2022/06/14 12:13:37;;;;;;;6.90;2.50;;;;;;;20.72;44.46;102045.56;5075431;28;20024;-69
2022/06/14 12:16:06;;;;;;;7.00;2.25;;;;;;;20.82;43.73;102042.03;5075232;28;20348;-69
2022/06/14 12:18:35;;;;;;;6.43;2.70;;;;;;;20.69;42.31;102048.84;5074431;28;20025;-70
2022/06/14 12:21:10;;;;;;;8.27;2.92;;;;;;;20.69;43.53;102044.16;5055215;28;20048;-70
2022/06/14 12:23:45;;;;;;;6.35;2.50;;;;;;;20.87;45.31;102040.16;5055214;28;20029;-70
2022/06/14 12:26:34;;;;;;;8.82;3.05;;;;;;;21.00;44.50;102038.00;5054588;28;20081;-70
2022/06/14 12:29:15;;;;;;;7.28;3.17;;;;;;;21.01;43.53;102034.19;5055122;28;20495;-73
2022/06/14 12:31:51;;;;;;;7.55;2.42;;;;;;;21.05;43.86;102030.63;5055038;28;20033;-68